Overview Statistics Trail Chart Weather Telemetry Raw packets
 

This is the latest recevied weather packets stored in our database for station/object VA2RBQ-7. If no packets are shown the sender has not sent any weather packets the latest 10 day(s).

<< 81 82 83 84 85 86 87 >>
Time Temp. Humidity Pressure Rain* Wind** Luminosity Snow
1787939351 15.56° C 72% 1017.3 hPa 0 mm - - -
1787939048 16.67° C 71% 1017.2 hPa 0 mm - - -
1787938745 17.22° C 71% 1017.2 hPa 0 mm - - -
1787938443 16.67° C 71% 1017.3 hPa 0 mm - - -
1787938140 16.11° C 71% 1017.3 hPa 0 mm - - -
1787937838 15.56° C 71% 1017.3 hPa 0 mm - - -
1787937535 15° C 71% 1017.3 hPa 0 mm - - -
1787937232 15° C 71% 1017.3 hPa 0 mm - - -
1787936930 15.56° C 71% 1017.3 hPa 0 mm - - -
1787936627 15° C 71% 1017.4 hPa 0 mm - - -
1787936325 15° C 71% 1017.4 hPa 0 mm - - -
1787936022 15° C 71% 1017.3 hPa 0 mm - - -
1787935719 15° C 71% 1017.3 hPa 0 mm - - -
1787935114 14.44° C 71% 1017.4 hPa 0 mm - - -
1787934812 14.44° C 71% 1017.3 hPa 0 mm - - -
1787934509 -17.78° C 71% 1017.5 hPa 0 mm - - -
1787934202 15° C 71% 1017.4 hPa 1.27 mm - - -
1787933900 14.44° C 71% 1017.5 hPa 1.27 mm - - -
1787933597 14.44° C 71% 1017.5 hPa 1.27 mm - - -
1787933295 14.44° C 71% 1017.4 hPa 1.27 mm - - -
1787932992 14.44° C 71% 1017.3 hPa 1.27 mm - - -
1787932689 14.44° C 71% 1017.4 hPa 1.27 mm - - -
1787932387 14.44° C 71% 1017.4 hPa 1.27 mm - - -
1787932084 14.44° C 71% 1017.5 hPa 1.27 mm - - -
1787931782 13.89° C 71% 1017.5 hPa 1.27 mm - - -

* Rain since midnight (hover to see other rain measurements)
** Current wind speed in m/s (hover to see current wind gust speed)